sensor_id;sensor_type;location;lat;lon;timestamp;P1;durP1;ratioP1;P2;durP2;ratioP2
48951;SDS011;34758;42.148;24.744;2024-03-23T00:54:48;16.00;;;9.63;;
48951;SDS011;34758;42.148;24.744;2024-03-23T00:57:16;16.40;;;9.40;;
48951;SDS011;34758;42.148;24.744;2024-03-23T00:59:42;15.15;;;9.27;;
48951;SDS011;34758;42.148;24.744;2024-03-23T01:02:09;14.13;;;9.25;;
48951;SDS011;34758;42.148;24.744;2024-03-23T01:04:35;15.02;;;9.50;;
48951;SDS011;34758;42.148;24.744;2024-03-23T01:07:02;15.73;;;9.32;;
48951;SDS011;34758;42.148;24.744;2024-03-23T01:09:30;14.80;;;8.70;;
48951;SDS011;34758;42.148;24.744;2024-03-23T01:11:59;13.20;;;8.90;;
48951;SDS011;34758;42.148;24.744;2024-03-23T01:14:25;16.80;;;9.45;;
48951;SDS011;34758;42.148;24.744;2024-03-23T01:16:52;15.27;;;9.93;;
48951;SDS011;34758;42.148;24.744;2024-03-23T01:19:19;15.05;;;9.15;;
48951;SDS011;34758;42.148;24.744;2024-03-23T01:21:47;18.40;;;9.30;;
48951;SDS011;34758;42.148;24.744;2024-03-23T01:24:14;15.90;;;8.77;;
48951;SDS011;34758;42.148;24.744;2024-03-23T01:26:41;11.80;;;8.02;;
48951;SDS011;34758;42.148;24.744;2024-03-23T01:29:08;15.90;;;8.98;;
48951;SDS011;34758;42.148;24.744;2024-03-23T01:31:36;17.30;;;9.50;;
48951;SDS011;34758;42.148;24.744;2024-03-23T01:34:02;17.30;;;8.50;;
48951;SDS011;34758;42.148;24.744;2024-03-23T01:36:29;14.25;;;8.07;;
48951;SDS011;34758;42.148;24.744;2024-03-23T01:38:55;14.25;;;8.18;;
48951;SDS011;34758;42.148;24.744;2024-03-23T01:41:23;12.75;;;7.90;;
48951;SDS011;34758;42.148;24.744;2024-03-23T01:43:50;13.90;;;7.93;;
48951;SDS011;34758;42.148;24.744;2024-03-23T01:46:21;13.27;;;7.43;;
48951;SDS011;34758;42.148;24.744;2024-03-23T01:48:47;12.95;;;7.32;;
48951;SDS011;34758;42.148;24.744;2024-03-23T01:51:14;14.73;;;8.15;;
48951;SDS011;34758;42.148;24.744;2024-03-23T01:53:40;14.25;;;7.85;;
48951;SDS011;34758;42.148;24.744;2024-03-23T01:56:07;13.60;;;8.48;;
48951;SDS011;34758;42.148;24.744;2024-03-23T01:58:33;12.45;;;8.00;;
48951;SDS011;34758;42.148;24.744;2024-03-23T02:01:01;11.88;;;7.30;;
48951;SDS011;34758;42.148;24.744;2024-03-23T02:03:28;15.60;;;8.38;;
48951;SDS011;34758;42.148;24.744;2024-03-23T02:05:56;15.57;;;8.60;;
48951;SDS011;34758;42.148;24.744;2024-03-23T02:08:23;12.55;;;8.88;;
48951;SDS011;34758;42.148;24.744;2024-03-23T02:10:50;13.40;;;8.32;;
48951;SDS011;34758;42.148;24.744;2024-03-23T02:13:17;11.68;;;7.65;;
48951;SDS011;34758;42.148;24.744;2024-03-23T02:15:45;12.00;;;8.27;;
48951;SDS011;34758;42.148;24.744;2024-03-23T02:18:13;15.25;;;8.32;;
48951;SDS011;34758;42.148;24.744;2024-03-23T02:20:43;14.05;;;8.50;;
48951;SDS011;34758;42.148;24.744;2024-03-23T02:23:14;14.10;;;8.40;;
48951;SDS011;34758;42.148;24.744;2024-03-23T02:25:41;12.30;;;7.95;;
48951;SDS011;34758;42.148;24.744;2024-03-23T02:28:07;17.40;;;9.15;;
48951;SDS011;34758;42.148;24.744;2024-03-23T02:30:34;16.15;;;9.05;;
48951;SDS011;34758;42.148;24.744;2024-03-23T02:33:00;14.35;;;9.75;;
48951;SDS011;34758;42.148;24.744;2024-03-23T02:35:27;12.80;;;8.77;;
48951;SDS011;34758;42.148;24.744;2024-03-23T02:37:53;18.55;;;10.05;;
48951;SDS011;34758;42.148;24.744;2024-03-23T02:40:22;13.88;;;8.20;;
48951;SDS011;34758;42.148;24.744;2024-03-23T02:42:50;13.18;;;8.95;;
48951;SDS011;34758;42.148;24.744;2024-03-23T02:45:17;13.40;;;8.57;;
48951;SDS011;34758;42.148;24.744;2024-03-23T02:47:43;17.95;;;8.35;;
48951;SDS011;34758;42.148;24.744;2024-03-23T02:50:11;15.52;;;8.35;;
48951;SDS011;34758;42.148;24.744;2024-03-23T02:52:37;12.85;;;8.27;;
48951;SDS011;34758;42.148;24.744;2024-03-23T02:55:04;18.63;;;8.95;;
48951;SDS011;34758;42.148;24.744;2024-03-23T02:57:34;14.13;;;8.63;;
48951;SDS011;34758;42.148;24.744;2024-03-23T03:00:01;16.13;;;8.68;;
48951;SDS011;34758;42.148;24.744;2024-03-23T03:02:28;15.82;;;10.15;;
48951;SDS011;34758;42.148;24.744;2024-03-23T03:04:55;20.50;;;12.30;;
48951;SDS011;34758;42.148;24.744;2024-03-23T03:07:21;18.30;;;11.23;;
48951;SDS011;34758;42.148;24.744;2024-03-23T03:09:47;16.52;;;10.38;;
48951;SDS011;34758;42.148;24.744;2024-03-23T03:12:15;16.52;;;10.15;;
48951;SDS011;34758;42.148;24.744;2024-03-23T03:14:43;18.90;;;10.52;;
48951;SDS011;34758;42.148;24.744;2024-03-23T03:17:09;17.25;;;10.98;;
48951;SDS011;34758;42.148;24.744;2024-03-23T03:19:36;16.45;;;10.35;;
48951;SDS011;34758;42.148;24.744;2024-03-23T03:22:04;18.70;;;11.23;;
48951;SDS011;34758;42.148;24.744;2024-03-23T03:24:31;22.92;;;12.88;;
48951;SDS011;34758;42.148;24.744;2024-03-23T03:26:58;22.35;;;12.48;;
48951;SDS011;34758;42.148;24.744;2024-03-23T03:29:26;22.98;;;12.73;;
48951;SDS011;34758;42.148;24.744;2024-03-23T03:32:00;24.88;;;12.50;;
48951;SDS011;34758;42.148;24.744;2024-03-23T03:34:29;25.52;;;13.50;;
48951;SDS011;34758;42.148;24.744;2024-03-23T03:36:56;22.38;;;13.10;;
48951;SDS011;34758;42.148;24.744;2024-03-23T03:39:24;21.60;;;12.20;;
48951;SDS011;34758;42.148;24.744;2024-03-23T03:41:50;18.65;;;10.77;;
48951;SDS011;34758;42.148;24.744;2024-03-23T03:44:17;18.05;;;11.07;;
48951;SDS011;34758;42.148;24.744;2024-03-23T03:46:44;19.23;;;11.85;;
48951;SDS011;34758;42.148;24.744;2024-03-23T03:49:12;17.35;;;10.68;;
48951;SDS011;34758;42.148;24.744;2024-03-23T03:51:39;17.20;;;10.30;;
48951;SDS011;34758;42.148;24.744;2024-03-23T03:54:06;16.08;;;10.15;;
48951;SDS011;34758;42.148;24.744;2024-03-23T03:56:33;17.42;;;10.38;;
48951;SDS011;34758;42.148;24.744;2024-03-23T03:59:00;17.23;;;10.38;;
48951;SDS011;34758;42.148;24.744;2024-03-23T04:01:26;15.30;;;10.45;;
48951;SDS011;34758;42.148;24.744;2024-03-23T04:03:53;16.13;;;10.60;;
48951;SDS011;34758;42.148;24.744;2024-03-23T04:06:21;17.40;;;9.73;;
48951;SDS011;34758;42.148;24.744;2024-03-23T04:08:48;11.00;;;8.65;;
48951;SDS011;34758;42.148;24.744;2024-03-23T04:11:15;13.70;;;8.07;;
48951;SDS011;34758;42.148;24.744;2024-03-23T04:13:41;11.88;;;7.82;;
48951;SDS011;34758;42.148;24.744;2024-03-23T04:16:08;10.00;;;7.15;;
48951;SDS011;34758;42.148;24.744;2024-03-23T04:18:34;9.15;;;6.45;;
48951;SDS011;34758;42.148;24.744;2024-03-23T04:21:03;9.05;;;6.60;;
48951;SDS011;34758;42.148;24.744;2024-03-23T04:23:30;14.18;;;7.25;;
48951;SDS011;34758;42.148;24.744;2024-03-23T04:26:02;10.90;;;7.28;;
48951;SDS011;34758;42.148;24.744;2024-03-23T04:28:29;9.95;;;7.05;;
48951;SDS011;34758;42.148;24.744;2024-03-23T04:30:56;10.93;;;7.40;;
48951;SDS011;34758;42.148;24.744;2024-03-23T04:33:22;12.77;;;8.23;;
48951;SDS011;34758;42.148;24.744;2024-03-23T04:35:49;8.88;;;6.80;;
48951;SDS011;34758;42.148;24.744;2024-03-23T04:38:15;11.02;;;6.93;;
48951;SDS011;34758;42.148;24.744;2024-03-23T04:40:44;11.23;;;6.90;;
48951;SDS011;34758;42.148;24.744;2024-03-23T04:43:13;13.77;;;7.03;;
48951;SDS011;34758;42.148;24.744;2024-03-23T04:45:40;11.32;;;6.82;;
48951;SDS011;34758;42.148;24.744;2024-03-23T04:48:07;9.52;;;6.95;;
48951;SDS011;34758;42.148;24.744;2024-03-23T04:50:36;11.50;;;7.35;;
48951;SDS011;34758;42.148;24.744;2024-03-23T04:53:04;10.25;;;7.40;;
48951;SDS011;34758;42.148;24.744;2024-03-23T04:55:31;12.15;;;7.50;;
48951;SDS011;34758;42.148;24.744;2024-03-23T04:58:01;14.40;;;7.95;;
48951;SDS011;34758;42.148;24.744;2024-03-23T05:00:27;11.90;;;7.35;;
48951;SDS011;34758;42.148;24.744;2024-03-23T05:02:57;9.85;;;7.15;;
48951;SDS011;34758;42.148;24.744;2024-03-23T05:05:23;10.30;;;6.32;;
48951;SDS011;34758;42.148;24.744;2024-03-23T05:07:50;8.82;;;6.47;;
48951;SDS011;34758;42.148;24.744;2024-03-23T05:10:17;12.90;;;6.90;;
48951;SDS011;34758;42.148;24.744;2024-03-23T05:12:44;12.43;;;7.05;;
48951;SDS011;34758;42.148;24.744;2024-03-23T05:15:13;10.93;;;7.20;;
48951;SDS011;34758;42.148;24.744;2024-03-23T05:17:39;10.15;;;6.40;;
48951;SDS011;34758;42.148;24.744;2024-03-23T05:20:06;12.13;;;7.00;;
48951;SDS011;34758;42.148;24.744;2024-03-23T05:22:36;11.05;;;6.65;;
48951;SDS011;34758;42.148;24.744;2024-03-23T05:25:03;17.48;;;7.20;;
48951;SDS011;34758;42.148;24.744;2024-03-23T05:27:30;9.52;;;6.45;;
48951;SDS011;34758;42.148;24.744;2024-03-23T05:29:58;10.77;;;6.28;;
48951;SDS011;34758;42.148;24.744;2024-03-23T05:32:27;11.38;;;6.18;;
48951;SDS011;34758;42.148;24.744;2024-03-23T05:34:54;9.63;;;6.55;;
48951;SDS011;34758;42.148;24.744;2024-03-23T05:37:22;11.02;;;6.55;;
48951;SDS011;34758;42.148;24.744;2024-03-23T05:39:49;10.88;;;6.80;;
48951;SDS011;34758;42.148;24.744;2024-03-23T05:42:15;10.38;;;6.57;;
48951;SDS011;34758;42.148;24.744;2024-03-23T05:44:43;9.43;;;6.63;;
48951;SDS011;34758;42.148;24.744;2024-03-23T05:47:10;10.07;;;6.85;;
48951;SDS011;34758;42.148;24.744;2024-03-23T05:49:40;9.27;;;5.80;;
48951;SDS011;34758;42.148;24.744;2024-03-23T05:52:07;7.80;;;5.85;;
48951;SDS011;34758;42.148;24.744;2024-03-23T05:54:36;8.02;;;5.97;;
48951;SDS011;34758;42.148;24.744;2024-03-23T05:57:03;10.98;;;6.97;;
48951;SDS011;34758;42.148;24.744;2024-03-23T05:59:33;9.68;;;6.10;;
48951;SDS011;34758;42.148;24.744;2024-03-23T06:02:00;9.05;;;6.18;;
48951;SDS011;34758;42.148;24.744;2024-03-23T06:04:27;9.45;;;6.50;;
48951;SDS011;34758;42.148;24.744;2024-03-23T06:06:54;11.52;;;7.75;;
48951;SDS011;34758;42.148;24.744;2024-03-23T06:09:23;11.90;;;7.75;;
48951;SDS011;34758;42.148;24.744;2024-03-23T06:11:49;11.48;;;6.78;;
48951;SDS011;34758;42.148;24.744;2024-03-23T06:14:19;9.80;;;6.63;;
48951;SDS011;34758;42.148;24.744;2024-03-23T06:16:45;9.68;;;6.85;;
48951;SDS011;34758;42.148;24.744;2024-03-23T06:19:12;11.57;;;7.28;;
48951;SDS011;34758;42.148;24.744;2024-03-23T06:21:42;9.52;;;7.05;;
48951;SDS011;34758;42.148;24.744;2024-03-23T06:24:20;10.40;;;7.05;;
48951;SDS011;34758;42.148;24.744;2024-03-23T06:26:47;10.38;;;7.47;;
48951;SDS011;34758;42.148;24.744;2024-03-23T06:29:14;11.32;;;7.05;;
48951;SDS011;34758;42.148;24.744;2024-03-23T06:31:41;9.85;;;6.80;;
48951;SDS011;34758;42.148;24.744;2024-03-23T06:34:10;15.30;;;7.82;;
48951;SDS011;34758;42.148;24.744;2024-03-23T06:36:36;9.77;;;7.35;;
48951;SDS011;34758;42.148;24.744;2024-03-23T06:39:04;10.48;;;7.40;;
48951;SDS011;34758;42.148;24.744;2024-03-23T06:41:32;12.25;;;7.65;;
48951;SDS011;34758;42.148;24.744;2024-03-23T06:44:00;11.05;;;7.38;;
48951;SDS011;34758;42.148;24.744;2024-03-23T06:46:28;14.77;;;8.30;;
48951;SDS011;34758;42.148;24.744;2024-03-23T06:48:56;11.25;;;7.70;;
48951;SDS011;34758;42.148;24.744;2024-03-23T06:51:22;25.05;;;14.02;;
48951;SDS011;34758;42.148;24.744;2024-03-23T06:53:49;26.45;;;17.90;;
48951;SDS011;34758;42.148;24.744;2024-03-23T06:56:16;16.40;;;11.23;;
48951;SDS011;34758;42.148;24.744;2024-03-23T06:58:46;12.60;;;8.90;;
48951;SDS011;34758;42.148;24.744;2024-03-23T07:01:12;18.98;;;9.32;;
48951;SDS011;34758;42.148;24.744;2024-03-23T07:03:39;13.73;;;8.70;;
48951;SDS011;34758;42.148;24.744;2024-03-23T07:06:05;12.05;;;7.75;;
48951;SDS011;34758;42.148;24.744;2024-03-23T07:08:33;12.65;;;8.38;;
48951;SDS011;34758;42.148;24.744;2024-03-23T07:11:00;14.57;;;8.38;;
48951;SDS011;34758;42.148;24.744;2024-03-23T07:13:28;16.13;;;9.13;;
48951;SDS011;34758;42.148;24.744;2024-03-23T07:15:56;14.30;;;9.20;;
48951;SDS011;34758;42.148;24.744;2024-03-23T07:18:25;11.90;;;7.55;;
48951;SDS011;34758;42.148;24.744;2024-03-23T07:20:54;12.82;;;8.43;;
48951;SDS011;34758;42.148;24.744;2024-03-23T07:23:21;12.65;;;8.23;;
48951;SDS011;34758;42.148;24.744;2024-03-23T07:25:56;15.50;;;9.25;;
48951;SDS011;34758;42.148;24.744;2024-03-23T07:28:25;14.70;;;8.38;;
48951;SDS011;34758;42.148;24.744;2024-03-23T07:31:06;11.95;;;8.32;;
48951;SDS011;34758;42.148;24.744;2024-03-23T07:36:07;9.88;;;7.20;;
48951;SDS011;34758;42.148;24.744;2024-03-23T07:38:34;8.75;;;6.70;;
48951;SDS011;34758;42.148;24.744;2024-03-23T07:41:04;11.43;;;7.13;;
48951;SDS011;34758;42.148;24.744;2024-03-23T07:43:34;9.75;;;7.10;;
48951;SDS011;34758;42.148;24.744;2024-03-23T07:46:00;8.18;;;6.60;;
48951;SDS011;34758;42.148;24.744;2024-03-23T07:48:30;16.48;;;6.90;;
48951;SDS011;34758;42.148;24.744;2024-03-23T07:50:59;9.13;;;7.05;;
48951;SDS011;34758;42.148;24.744;2024-03-23T07:53:28;10.13;;;6.28;;
48951;SDS011;34758;42.148;24.744;2024-03-23T07:55:54;8.52;;;6.00;;
48951;SDS011;34758;42.148;24.744;2024-03-23T07:58:22;13.05;;;6.25;;
48951;SDS011;34758;42.148;24.744;2024-03-23T08:00:50;9.00;;;5.97;;
48951;SDS011;34758;42.148;24.744;2024-03-23T08:03:17;8.25;;;6.32;;
48951;SDS011;34758;42.148;24.744;2024-03-23T08:05:45;8.45;;;5.88;;
48951;SDS011;34758;42.148;24.744;2024-03-23T08:08:12;10.48;;;6.35;;
48951;SDS011;34758;42.148;24.744;2024-03-23T08:10:46;11.95;;;6.50;;
48951;SDS011;34758;42.148;24.744;2024-03-23T08:13:15;12.90;;;6.95;;
48951;SDS011;34758;42.148;24.744;2024-03-23T08:15:42;10.98;;;7.20;;
48951;SDS011;34758;42.148;24.744;2024-03-23T08:18:12;16.15;;;11.57;;
48951;SDS011;34758;42.148;24.744;2024-03-23T08:20:38;10.57;;;7.07;;
48951;SDS011;34758;42.148;24.744;2024-03-23T08:23:07;10.90;;;7.20;;
48951;SDS011;34758;42.148;24.744;2024-03-23T08:25:33;15.60;;;6.97;;
48951;SDS011;34758;42.148;24.744;2024-03-23T08:28:01;10.00;;;6.93;;
48951;SDS011;34758;42.148;24.744;2024-03-23T08:30:27;8.90;;;6.30;;
48951;SDS011;34758;42.148;24.744;2024-03-23T08:32:54;9.43;;;5.82;;
48951;SDS011;34758;42.148;24.744;2024-03-23T08:35:20;5.88;;;5.20;;
48951;SDS011;34758;42.148;24.744;2024-03-23T08:37:49;7.70;;;5.70;;
48951;SDS011;34758;42.148;24.744;2024-03-23T08:40:16;9.13;;;5.50;;
48951;SDS011;34758;42.148;24.744;2024-03-23T08:42:43;11.00;;;6.70;;
48951;SDS011;34758;42.148;24.744;2024-03-23T08:45:10;8.70;;;6.47;;
48951;SDS011;34758;42.148;24.744;2024-03-23T08:47:44;7.63;;;5.68;;
48951;SDS011;34758;42.148;24.744;2024-03-23T08:50:10;9.20;;;5.80;;
48951;SDS011;34758;42.148;24.744;2024-03-23T08:52:38;8.38;;;6.60;;
48951;SDS011;34758;42.148;24.744;2024-03-23T08:55:04;8.75;;;6.20;;
48951;SDS011;34758;42.148;24.744;2024-03-23T08:57:34;7.22;;;6.30;;
48951;SDS011;34758;42.148;24.744;2024-03-23T09:00:01;8.48;;;6.28;;
48951;SDS011;34758;42.148;24.744;2024-03-23T09:02:28;9.07;;;5.70;;
48951;SDS011;34758;42.148;24.744;2024-03-23T09:04:55;12.80;;;6.68;;
48951;SDS011;34758;42.148;24.744;2024-03-23T09:07:29;8.10;;;6.57;;
48951;SDS011;34758;42.148;24.744;2024-03-23T09:09:56;9.23;;;5.65;;
48951;SDS011;34758;42.148;24.744;2024-03-23T09:12:23;8.50;;;5.80;;
48951;SDS011;34758;42.148;24.744;2024-03-23T09:14:51;10.10;;;6.20;;
48951;SDS011;34758;42.148;24.744;2024-03-23T09:17:19;11.20;;;6.90;;
48951;SDS011;34758;42.148;24.744;2024-03-23T09:19:46;9.45;;;6.47;;
48951;SDS011;34758;42.148;24.744;2024-03-23T09:22:14;11.52;;;6.20;;
48951;SDS011;34758;42.148;24.744;2024-03-23T09:24:40;9.95;;;6.47;;
48951;SDS011;34758;42.148;24.744;2024-03-23T09:27:07;12.88;;;6.15;;
48951;SDS011;34758;42.148;24.744;2024-03-23T09:29:33;17.65;;;7.32;;
48951;SDS011;34758;42.148;24.744;2024-03-23T09:32:02;8.32;;;6.65;;
48951;SDS011;34758;42.148;24.744;2024-03-23T09:34:28;9.57;;;6.75;;
48951;SDS011;34758;42.148;24.744;2024-03-23T09:36:55;13.75;;;6.10;;
48951;SDS011;34758;42.148;24.744;2024-03-23T09:39:22;8.93;;;6.30;;
48951;SDS011;34758;42.148;24.744;2024-03-23T09:41:49;9.18;;;6.53;;
48951;SDS011;34758;42.148;24.744;2024-03-23T09:44:15;8.35;;;6.50;;
48951;SDS011;34758;42.148;24.744;2024-03-23T09:46:42;9.77;;;6.63;;
48951;SDS011;34758;42.148;24.744;2024-03-23T09:49:10;10.05;;;6.63;;
48951;SDS011;34758;42.148;24.744;2024-03-23T09:51:39;9.00;;;6.50;;
48951;SDS011;34758;42.148;24.744;2024-03-23T09:54:05;9.88;;;6.50;;
48951;SDS011;34758;42.148;24.744;2024-03-23T09:56:33;11.90;;;6.57;;
48951;SDS011;34758;42.148;24.744;2024-03-23T09:59:02;9.95;;;6.13;;
48951;SDS011;34758;42.148;24.744;2024-03-23T10:01:30;12.37;;;6.40;;
48951;SDS011;34758;42.148;24.744;2024-03-23T10:03:57;8.85;;;6.13;;
48951;SDS011;34758;42.148;24.744;2024-03-23T10:06:25;7.80;;;6.35;;
48951;SDS011;34758;42.148;24.744;2024-03-23T10:08:52;8.50;;;5.82;;
48951;SDS011;34758;42.148;24.744;2024-03-23T10:11:21;9.43;;;5.90;;
48951;SDS011;34758;42.148;24.744;2024-03-23T10:13:48;9.18;;;6.15;;
48951;SDS011;34758;42.148;24.744;2024-03-23T10:16:22;10.32;;;6.15;;
48951;SDS011;34758;42.148;24.744;2024-03-23T10:18:48;8.40;;;6.15;;
48951;SDS011;34758;42.148;24.744;2024-03-23T10:21:16;8.40;;;5.30;;
48951;SDS011;34758;42.148;24.744;2024-03-23T10:23:44;9.38;;;6.03;;
48951;SDS011;34758;42.148;24.744;2024-03-23T10:26:16;10.68;;;5.50;;
48951;SDS011;34758;42.148;24.744;2024-03-23T10:28:54;6.57;;;4.97;;
48951;SDS011;34758;42.148;24.744;2024-03-23T10:31:23;10.80;;;5.28;;
48951;SDS011;34758;42.148;24.744;2024-03-23T10:33:50;6.70;;;5.13;;
48951;SDS011;34758;42.148;24.744;2024-03-23T10:36:19;8.10;;;4.95;;
48951;SDS011;34758;42.148;24.744;2024-03-23T10:38:49;8.38;;;5.15;;
48951;SDS011;34758;42.148;24.744;2024-03-23T10:41:16;7.82;;;5.55;;
48951;SDS011;34758;42.148;24.744;2024-03-23T10:43:45;6.07;;;4.97;;
48951;SDS011;34758;42.148;24.744;2024-03-23T10:46:13;6.72;;;5.05;;
48951;SDS011;34758;42.148;24.744;2024-03-23T10:48:41;9.90;;;7.07;;
48951;SDS011;34758;42.148;24.744;2024-03-23T10:51:08;6.55;;;5.28;;
48951;SDS011;34758;42.148;24.744;2024-03-23T10:53:36;8.52;;;5.80;;
48951;SDS011;34758;42.148;24.744;2024-03-23T10:56:05;10.07;;;5.78;;
48951;SDS011;34758;42.148;24.744;2024-03-23T10:58:36;8.37;;;5.30;;
48951;SDS011;34758;42.148;24.744;2024-03-23T11:01:03;8.10;;;5.55;;
48951;SDS011;34758;42.148;24.744;2024-03-23T11:03:31;6.25;;;4.50;;
48951;SDS011;34758;42.148;24.744;2024-03-23T11:05:58;8.00;;;5.13;;
48951;SDS011;34758;42.148;24.744;2024-03-23T11:08:31;9.13;;;5.25;;
48951;SDS011;34758;42.148;24.744;2024-03-23T11:11:15;7.63;;;5.32;;
48951;SDS011;34758;42.148;24.744;2024-03-23T11:13:44;8.43;;;5.35;;
48951;SDS011;34758;42.148;24.744;2024-03-23T11:16:14;10.85;;;5.93;;
48951;SDS011;34758;42.148;24.744;2024-03-23T11:18:42;7.93;;;5.60;;
48951;SDS011;34758;42.148;24.744;2024-03-23T11:21:09;5.60;;;4.93;;
48951;SDS011;34758;42.148;24.744;2024-03-23T11:23:36;8.73;;;5.30;;
48951;SDS011;34758;42.148;24.744;2024-03-23T11:26:02;7.25;;;5.15;;
48951;SDS011;34758;42.148;24.744;2024-03-23T11:28:35;6.20;;;5.13;;
48951;SDS011;34758;42.148;24.744;2024-03-23T11:31:00;5.20;;;4.60;;
48951;SDS011;34758;42.148;24.744;2024-03-23T11:33:27;9.82;;;6.00;;
48951;SDS011;34758;42.148;24.744;2024-03-23T11:35:54;7.75;;;5.38;;
48951;SDS011;34758;42.148;24.744;2024-03-23T11:38:21;8.40;;;4.68;;
48951;SDS011;34758;42.148;24.744;2024-03-23T11:40:48;7.88;;;5.68;;
48951;SDS011;34758;42.148;24.744;2024-03-23T11:43:17;6.60;;;5.25;;
48951;SDS011;34758;42.148;24.744;2024-03-23T11:45:45;7.25;;;4.75;;
48951;SDS011;34758;42.148;24.744;2024-03-23T11:48:15;6.85;;;4.70;;
48951;SDS011;34758;42.148;24.744;2024-03-23T11:50:43;5.95;;;4.70;;
48951;SDS011;34758;42.148;24.744;2024-03-23T11:53:13;8.40;;;5.13;;
48951;SDS011;34758;42.148;24.744;2024-03-23T11:55:41;5.60;;;4.70;;
48951;SDS011;34758;42.148;24.744;2024-03-23T11:58:12;9.25;;;5.68;;
48951;SDS011;34758;42.148;24.744;2024-03-23T12:00:39;5.97;;;4.53;;
48951;SDS011;34758;42.148;24.744;2024-03-23T12:03:07;8.05;;;5.10;;
48951;SDS011;34758;42.148;24.744;2024-03-23T12:05:35;7.10;;;4.72;;
48951;SDS011;34758;42.148;24.744;2024-03-23T12:08:16;7.45;;;4.45;;
48951;SDS011;34758;42.148;24.744;2024-03-23T12:10:44;5.50;;;3.75;;
48951;SDS011;34758;42.148;24.744;2024-03-23T12:13:18;5.45;;;3.88;;
48951;SDS011;34758;42.148;24.744;2024-03-23T12:15:46;6.07;;;4.55;;
48951;SDS011;34758;42.148;24.744;2024-03-23T12:18:15;8.25;;;5.15;;
48951;SDS011;34758;42.148;24.744;2024-03-23T12:20:41;6.07;;;4.88;;
48951;SDS011;34758;42.148;24.744;2024-03-23T12:23:09;8.93;;;5.20;;
48951;SDS011;34758;42.148;24.744;2024-03-23T12:25:37;4.63;;;4.13;;
48951;SDS011;34758;42.148;24.744;2024-03-23T12:28:04;5.00;;;3.30;;
48951;SDS011;34758;42.148;24.744;2024-03-23T12:30:34;8.25;;;4.35;;
48951;SDS011;34758;42.148;24.744;2024-03-23T12:33:03;5.85;;;4.40;;
48951;SDS011;34758;42.148;24.744;2024-03-23T12:35:33;4.72;;;3.88;;
48951;SDS011;34758;42.148;24.744;2024-03-23T12:38:01;7.95;;;3.50;;
48951;SDS011;34758;42.148;24.744;2024-03-23T12:40:27;8.52;;;3.78;;
48951;SDS011;34758;42.148;24.744;2024-03-23T12:42:54;4.18;;;3.38;;
48951;SDS011;34758;42.148;24.744;2024-03-23T12:45:21;4.60;;;3.45;;
48951;SDS011;34758;42.148;24.744;2024-03-23T12:47:48;6.30;;;3.83;;
48951;SDS011;34758;42.148;24.744;2024-03-23T12:50:14;7.22;;;3.85;;
48951;SDS011;34758;42.148;24.744;2024-03-23T12:52:42;4.18;;;3.55;;
48951;SDS011;34758;42.148;24.744;2024-03-23T12:55:08;6.00;;;3.78;;
48951;SDS011;34758;42.148;24.744;2024-03-23T12:57:36;3.97;;;3.05;;
48951;SDS011;34758;42.148;24.744;2024-03-23T13:00:04;5.95;;;4.25;;
48951;SDS011;34758;42.148;24.744;2024-03-23T13:02:35;6.43;;;4.38;;
48951;SDS011;34758;42.148;24.744;2024-03-23T13:05:01;4.95;;;3.65;;
48951;SDS011;34758;42.148;24.744;2024-03-23T13:07:28;4.22;;;3.38;;
48951;SDS011;34758;42.148;24.744;2024-03-23T13:09:55;5.32;;;4.10;;
48951;SDS011;34758;42.148;24.744;2024-03-23T13:12:23;5.13;;;4.05;;
48951;SDS011;34758;42.148;24.744;2024-03-23T13:14:50;5.30;;;3.90;;
48951;SDS011;34758;42.148;24.744;2024-03-23T13:17:19;5.75;;;3.75;;
48951;SDS011;34758;42.148;24.744;2024-03-23T13:19:47;4.15;;;3.08;;
48951;SDS011;34758;42.148;24.744;2024-03-23T13:22:15;3.65;;;3.10;;
48951;SDS011;34758;42.148;24.744;2024-03-23T13:24:41;4.60;;;3.35;;
48951;SDS011;34758;42.148;24.744;2024-03-23T13:27:09;4.10;;;2.90;;
48951;SDS011;34758;42.148;24.744;2024-03-23T13:29:36;5.13;;;3.08;;
48951;SDS011;34758;42.148;24.744;2024-03-23T13:32:04;4.78;;;3.20;;
48951;SDS011;34758;42.148;24.744;2024-03-23T13:34:31;5.57;;;3.65;;
48951;SDS011;34758;42.148;24.744;2024-03-23T13:36:58;5.35;;;4.55;;
48951;SDS011;34758;42.148;24.744;2024-03-23T13:39:25;5.60;;;4.88;;
48951;SDS011;34758;42.148;24.744;2024-03-23T13:41:53;6.15;;;5.20;;
48951;SDS011;34758;42.148;24.744;2024-03-23T13:44:21;6.57;;;5.70;;
48951;SDS011;34758;42.148;24.744;2024-03-23T13:46:48;10.52;;;7.43;;
48951;SDS011;34758;42.148;24.744;2024-03-23T13:49:19;13.77;;;9.07;;
48951;SDS011;34758;42.148;24.744;2024-03-23T13:51:54;10.07;;;7.18;;
48951;SDS011;34758;42.148;24.744;2024-03-23T13:54:22;9.70;;;6.57;;
48951;SDS011;34758;42.148;24.744;2024-03-23T13:56:49;9.48;;;6.43;;
48951;SDS011;34758;42.148;24.744;2024-03-23T13:59:15;10.73;;;7.80;;
48951;SDS011;34758;42.148;24.744;2024-03-23T14:01:43;6.90;;;6.03;;
48951;SDS011;34758;42.148;24.744;2024-03-23T14:04:10;8.10;;;5.53;;
48951;SDS011;34758;42.148;24.744;2024-03-23T14:06:38;8.70;;;5.05;;
48951;SDS011;34758;42.148;24.744;2024-03-23T14:09:05;5.75;;;4.60;;
48951;SDS011;34758;42.148;24.744;2024-03-23T14:11:34;4.65;;;3.63;;
48951;SDS011;34758;42.148;24.744;2024-03-23T14:13:59;4.72;;;3.70;;
48951;SDS011;34758;42.148;24.744;2024-03-23T14:16:27;6.18;;;3.10;;
48951;SDS011;34758;42.148;24.744;2024-03-23T14:18:54;4.35;;;2.83;;
48951;SDS011;34758;42.148;24.744;2024-03-23T14:21:21;4.40;;;3.30;;
48951;SDS011;34758;42.148;24.744;2024-03-23T14:23:48;2.78;;;2.42;;
48951;SDS011;34758;42.148;24.744;2024-03-23T14:26:15;3.00;;;2.35;;
48951;SDS011;34758;42.148;24.744;2024-03-23T14:28:41;4.05;;;2.83;;
48951;SDS011;34758;42.148;24.744;2024-03-23T14:31:08;4.38;;;3.10;;
48951;SDS011;34758;42.148;24.744;2024-03-23T14:33:35;3.63;;;2.85;;
48951;SDS011;34758;42.148;24.744;2024-03-23T14:36:05;3.83;;;2.47;;
48951;SDS011;34758;42.148;24.744;2024-03-23T14:38:31;5.28;;;2.50;;
48951;SDS011;34758;42.148;24.744;2024-03-23T14:40:58;4.07;;;2.95;;
48951;SDS011;34758;42.148;24.744;2024-03-23T14:43:24;3.90;;;3.28;;
48951;SDS011;34758;42.148;24.744;2024-03-23T14:46:06;4.50;;;2.80;;
48951;SDS011;34758;42.148;24.744;2024-03-23T14:48:33;3.72;;;2.75;;
48951;SDS011;34758;42.148;24.744;2024-03-23T14:51:00;4.22;;;2.22;;
48951;SDS011;34758;42.148;24.744;2024-03-23T14:53:27;5.38;;;2.53;;
48951;SDS011;34758;42.148;24.744;2024-03-23T14:55:55;2.33;;;1.80;;
48951;SDS011;34758;42.148;24.744;2024-03-23T14:58:21;3.38;;;2.60;;
48951;SDS011;34758;42.148;24.744;2024-03-23T15:00:49;6.13;;;1.85;;
48951;SDS011;34758;42.148;24.744;2024-03-23T15:03:16;3.65;;;2.10;;
48951;SDS011;34758;42.148;24.744;2024-03-23T15:05:53;2.60;;;1.90;;
48951;SDS011;34758;42.148;24.744;2024-03-23T15:08:19;3.95;;;2.25;;
48951;SDS011;34758;42.148;24.744;2024-03-23T15:10:47;5.43;;;2.03;;
48951;SDS011;34758;42.148;24.744;2024-03-23T15:13:14;4.28;;;2.03;;
48951;SDS011;34758;42.148;24.744;2024-03-23T15:15:41;2.97;;;1.98;;
48951;SDS011;34758;42.148;24.744;2024-03-23T15:18:09;3.67;;;2.80;;
48951;SDS011;34758;42.148;24.744;2024-03-23T15:20:37;3.25;;;2.72;;
48951;SDS011;34758;42.148;24.744;2024-03-23T15:23:04;4.85;;;3.05;;
48951;SDS011;34758;42.148;24.744;2024-03-23T15:25:31;2.97;;;2.28;;